sensor_id;sensor_type;location;lat;lon;timestamp;temperature;humidity
1221;DHT22;600;48.044;7.878;2022-09-17T00:01:23;15.60;99.90
1221;DHT22;600;48.044;7.878;2022-09-17T00:03:53;15.60;99.90
1221;DHT22;600;48.044;7.878;2022-09-17T00:06:21;15.60;99.90
1221;DHT22;600;48.044;7.878;2022-09-17T00:08:48;15.60;99.90
1221;DHT22;600;48.044;7.878;2022-09-17T00:11:18;15.70;99.90
1221;DHT22;600;48.044;7.878;2022-09-17T00:13:47;15.70;99.90
1221;DHT22;600;48.044;7.878;2022-09-17T00:16:22;15.70;99.90
1221;DHT22;600;48.044;7.878;2022-09-17T00:18:49;15.70;99.90
1221;DHT22;600;48.044;7.878;2022-09-17T00:21:16;15.70;99.90
1221;DHT22;600;48.044;7.878;2022-09-17T00:23:43;15.70;99.90
1221;DHT22;600;48.044;7.878;2022-09-17T00:26:10;15.70;99.90
1221;DHT22;600;48.044;7.878;2022-09-17T00:28:37;15.70;99.90
1221;DHT22;600;48.044;7.878;2022-09-17T00:31:06;15.70;99.90
1221;DHT22;600;48.044;7.878;2022-09-17T00:33:35;15.80;99.90
1221;DHT22;600;48.044;7.878;2022-09-17T00:36:03;15.80;99.90
1221;DHT22;600;48.044;7.878;2022-09-17T00:38:30;15.80;99.90
1221;DHT22;600;48.044;7.878;2022-09-17T00:40:57;15.80;99.90
1221;DHT22;600;48.044;7.878;2022-09-17T00:43:39;15.80;99.90
1221;DHT22;600;48.044;7.878;2022-09-17T00:46:16;15.80;99.90
1221;DHT22;600;48.044;7.878;2022-09-17T00:48:48;15.80;99.90
1221;DHT22;600;48.044;7.878;2022-09-17T00:51:24;15.80;99.90
1221;DHT22;600;48.044;7.878;2022-09-17T00:53:53;15.80;99.90
1221;DHT22;600;48.044;7.878;2022-09-17T00:56:22;15.80;99.90
1221;DHT22;600;48.044;7.878;2022-09-17T00:58:51;15.80;99.90
1221;DHT22;600;48.044;7.878;2022-09-17T01:01:18;15.70;99.90
1221;DHT22;600;48.044;7.878;2022-09-17T01:03:45;15.70;99.90
1221;DHT22;600;48.044;7.878;2022-09-17T01:06:19;15.70;99.90
1221;DHT22;600;48.044;7.878;2022-09-17T01:08:58;15.60;99.90
1221;DHT22;600;48.044;7.878;2022-09-17T01:11:43;15.60;99.90
1221;DHT22;600;48.044;7.878;2022-09-17T01:14:20;15.60;99.90
1221;DHT22;600;48.044;7.878;2022-09-17T01:16:57;15.50;99.90
1221;DHT22;600;48.044;7.878;2022-09-17T01:20:05;15.50;99.90
1221;DHT22;600;48.044;7.878;2022-09-17T01:22:39;15.50;99.90
1221;DHT22;600;48.044;7.878;2022-09-17T01:25:19;15.40;99.90
1221;DHT22;600;48.044;7.878;2022-09-17T01:31:13;15.30;99.90
1221;DHT22;600;48.044;7.878;2022-09-17T01:33:49;15.40;99.90
1221;DHT22;600;48.044;7.878;2022-09-17T01:36:33;15.30;99.90
1221;DHT22;600;48.044;7.878;2022-09-17T01:39:10;15.20;99.90
1221;DHT22;600;48.044;7.878;2022-09-17T01:41:42;15.20;99.90
1221;DHT22;600;48.044;7.878;2022-09-17T01:44:15;15.30;99.90
1221;DHT22;600;48.044;7.878;2022-09-17T01:46:48;15.30;99.90
1221;DHT22;600;48.044;7.878;2022-09-17T01:49:16;15.30;99.90
1221;DHT22;600;48.044;7.878;2022-09-17T01:51:45;15.40;99.90
1221;DHT22;600;48.044;7.878;2022-09-17T01:54:17;15.40;99.90
1221;DHT22;600;48.044;7.878;2022-09-17T01:56:50;15.40;99.90
1221;DHT22;600;48.044;7.878;2022-09-17T01:59:19;15.40;99.90
1221;DHT22;600;48.044;7.878;2022-09-17T02:01:52;15.40;99.90
1221;DHT22;600;48.044;7.878;2022-09-17T02:04:24;15.40;99.90
1221;DHT22;600;48.044;7.878;2022-09-17T02:06:57;15.40;99.90
1221;DHT22;600;48.044;7.878;2022-09-17T02:09:28;15.40;99.90
1221;DHT22;600;48.044;7.878;2022-09-17T02:11:59;15.30;99.90
1221;DHT22;600;48.044;7.878;2022-09-17T02:14:30;15.20;99.90
1221;DHT22;600;48.044;7.878;2022-09-17T02:17:06;15.20;99.90
1221;DHT22;600;48.044;7.878;2022-09-17T02:19:36;15.20;99.90
1221;DHT22;600;48.044;7.878;2022-09-17T02:22:11;15.10;99.90
1221;DHT22;600;48.044;7.878;2022-09-17T02:24:44;15.10;99.90
1221;DHT22;600;48.044;7.878;2022-09-17T02:27:18;15.10;99.90
1221;DHT22;600;48.044;7.878;2022-09-17T02:29:46;15.10;99.90
1221;DHT22;600;48.044;7.878;2022-09-17T02:32:14;15.10;99.90
1221;DHT22;600;48.044;7.878;2022-09-17T02:34:41;15.00;99.90
1221;DHT22;600;48.044;7.878;2022-09-17T02:37:08;15.00;99.90
1221;DHT22;600;48.044;7.878;2022-09-17T02:39:35;15.00;99.90
1221;DHT22;600;48.044;7.878;2022-09-17T02:42:07;14.90;99.90
1221;DHT22;600;48.044;7.878;2022-09-17T02:44:42;15.00;99.90
1221;DHT22;600;48.044;7.878;2022-09-17T02:47:40;15.00;99.90
1221;DHT22;600;48.044;7.878;2022-09-17T02:50:22;14.90;99.90
1221;DHT22;600;48.044;7.878;2022-09-17T02:52:59;14.90;99.90
1221;DHT22;600;48.044;7.878;2022-09-17T02:55:35;14.90;99.90
1221;DHT22;600;48.044;7.878;2022-09-17T02:58:13;14.90;99.90
1221;DHT22;600;48.044;7.878;2022-09-17T03:00:43;14.80;99.90
1221;DHT22;600;48.044;7.878;2022-09-17T03:03:18;14.80;99.90
1221;DHT22;600;48.044;7.878;2022-09-17T03:05:47;14.80;99.90
1221;DHT22;600;48.044;7.878;2022-09-17T03:08:15;14.80;99.90
1221;DHT22;600;48.044;7.878;2022-09-17T03:10:44;14.80;99.90
1221;DHT22;600;48.044;7.878;2022-09-17T03:13:14;14.80;99.90
1221;DHT22;600;48.044;7.878;2022-09-17T03:15:40;14.70;99.90
1221;DHT22;600;48.044;7.878;2022-09-17T03:18:08;14.50;99.90
1221;DHT22;600;48.044;7.878;2022-09-17T03:20:36;14.50;99.90
1221;DHT22;600;48.044;7.878;2022-09-17T03:23:02;14.40;99.90
1221;DHT22;600;48.044;7.878;2022-09-17T03:25:29;14.40;99.90
1221;DHT22;600;48.044;7.878;2022-09-17T03:27:56;14.30;99.90
1221;DHT22;600;48.044;7.878;2022-09-17T03:30:22;14.20;99.90
1221;DHT22;600;48.044;7.878;2022-09-17T03:32:49;14.20;99.90
1221;DHT22;600;48.044;7.878;2022-09-17T03:35:16;14.10;99.90
1221;DHT22;600;48.044;7.878;2022-09-17T03:37:44;14.10;99.90
1221;DHT22;600;48.044;7.878;2022-09-17T03:40:12;14.10;99.90
1221;DHT22;600;48.044;7.878;2022-09-17T03:42:39;14.10;99.90
1221;DHT22;600;48.044;7.878;2022-09-17T03:45:06;14.10;99.90
1221;DHT22;600;48.044;7.878;2022-09-17T03:47:33;14.10;99.90
1221;DHT22;600;48.044;7.878;2022-09-17T03:50:00;14.00;99.90
1221;DHT22;600;48.044;7.878;2022-09-17T03:52:27;13.90;99.90
1221;DHT22;600;48.044;7.878;2022-09-17T03:54:55;13.80;99.90
1221;DHT22;600;48.044;7.878;2022-09-17T03:57:21;13.80;99.90
1221;DHT22;600;48.044;7.878;2022-09-17T03:59:48;13.80;99.90
1221;DHT22;600;48.044;7.878;2022-09-17T04:02:15;13.80;99.90
1221;DHT22;600;48.044;7.878;2022-09-17T04:04:42;13.80;99.90
1221;DHT22;600;48.044;7.878;2022-09-17T04:07:09;13.80;99.90
1221;DHT22;600;48.044;7.878;2022-09-17T04:09:35;13.80;99.90
1221;DHT22;600;48.044;7.878;2022-09-17T04:12:03;13.70;99.90
1221;DHT22;600;48.044;7.878;2022-09-17T04:14:30;13.80;99.90
1221;DHT22;600;48.044;7.878;2022-09-17T04:16:57;13.80;99.90
1221;DHT22;600;48.044;7.878;2022-09-17T04:19:24;13.80;99.90
1221;DHT22;600;48.044;7.878;2022-09-17T04:21:51;13.70;99.90
1221;DHT22;600;48.044;7.878;2022-09-17T04:24:18;13.70;99.90
1221;DHT22;600;48.044;7.878;2022-09-17T04:26:45;13.70;99.90
1221;DHT22;600;48.044;7.878;2022-09-17T04:29:13;13.70;99.90
1221;DHT22;600;48.044;7.878;2022-09-17T04:31:40;13.70;99.90
1221;DHT22;600;48.044;7.878;2022-09-17T04:34:06;13.70;99.90
1221;DHT22;600;48.044;7.878;2022-09-17T04:36:33;13.60;99.90
1221;DHT22;600;48.044;7.878;2022-09-17T04:39:00;13.60;99.90
1221;DHT22;600;48.044;7.878;2022-09-17T04:41:26;13.60;99.90
1221;DHT22;600;48.044;7.878;2022-09-17T04:43:53;13.60;99.90
1221;DHT22;600;48.044;7.878;2022-09-17T04:46:21;13.70;99.90
1221;DHT22;600;48.044;7.878;2022-09-17T04:48:48;13.70;99.90
1221;DHT22;600;48.044;7.878;2022-09-17T04:51:14;13.60;99.90
1221;DHT22;600;48.044;7.878;2022-09-17T04:53:41;13.60;99.90
1221;DHT22;600;48.044;7.878;2022-09-17T04:56:08;13.60;99.90
1221;DHT22;600;48.044;7.878;2022-09-17T04:58:34;13.60;99.90
1221;DHT22;600;48.044;7.878;2022-09-17T05:01:01;13.60;99.90
1221;DHT22;600;48.044;7.878;2022-09-17T05:03:29;13.60;99.90
1221;DHT22;600;48.044;7.878;2022-09-17T05:05:56;13.60;99.90
1221;DHT22;600;48.044;7.878;2022-09-17T05:08:23;13.60;99.90
1221;DHT22;600;48.044;7.878;2022-09-17T05:10:50;13.60;99.90
1221;DHT22;600;48.044;7.878;2022-09-17T05:13:17;13.70;99.90
1221;DHT22;600;48.044;7.878;2022-09-17T05:15:43;13.70;99.90
1221;DHT22;600;48.044;7.878;2022-09-17T05:18:10;13.70;99.90
1221;DHT22;600;48.044;7.878;2022-09-17T05:20:39;13.70;99.90
1221;DHT22;600;48.044;7.878;2022-09-17T05:23:05;13.70;99.90
1221;DHT22;600;48.044;7.878;2022-09-17T05:25:32;13.70;99.90
1221;DHT22;600;48.044;7.878;2022-09-17T05:27:59;13.80;99.90
1221;DHT22;600;48.044;7.878;2022-09-17T05:30:26;13.80;99.90
1221;DHT22;600;48.044;7.878;2022-09-17T05:32:58;13.80;99.90
1221;DHT22;600;48.044;7.878;2022-09-17T05:35:25;13.80;99.90
1221;DHT22;600;48.044;7.878;2022-09-17T05:37:57;13.70;99.90
1221;DHT22;600;48.044;7.878;2022-09-17T05:40:24;13.80;99.90
1221;DHT22;600;48.044;7.878;2022-09-17T05:42:51;13.80;99.90
1221;DHT22;600;48.044;7.878;2022-09-17T05:45:18;13.70;99.90
1221;DHT22;600;48.044;7.878;2022-09-17T05:47:44;13.70;99.90
1221;DHT22;600;48.044;7.878;2022-09-17T05:50:11;13.60;99.90
1221;DHT22;600;48.044;7.878;2022-09-17T05:52:38;13.60;99.90
1221;DHT22;600;48.044;7.878;2022-09-17T05:55:06;13.60;99.90
1221;DHT22;600;48.044;7.878;2022-09-17T05:57:33;13.60;99.90
1221;DHT22;600;48.044;7.878;2022-09-17T06:00:00;13.60;99.90
1221;DHT22;600;48.044;7.878;2022-09-17T06:02:27;13.60;99.90
1221;DHT22;600;48.044;7.878;2022-09-17T06:04:54;13.60;99.90
1221;DHT22;600;48.044;7.878;2022-09-17T06:07:25;13.60;99.90
1221;DHT22;600;48.044;7.878;2022-09-17T06:09:51;13.60;99.90
1221;DHT22;600;48.044;7.878;2022-09-17T06:12:19;13.60;99.90
1221;DHT22;600;48.044;7.878;2022-09-17T06:14:46;13.50;99.90
1221;DHT22;600;48.044;7.878;2022-09-17T06:17:13;13.60;99.90
1221;DHT22;600;48.044;7.878;2022-09-17T06:19:39;13.50;99.90
1221;DHT22;600;48.044;7.878;2022-09-17T06:22:06;13.60;99.90
1221;DHT22;600;48.044;7.878;2022-09-17T06:24:33;13.60;99.90
1221;DHT22;600;48.044;7.878;2022-09-17T06:27:00;13.60;99.90
1221;DHT22;600;48.044;7.878;2022-09-17T06:29:28;13.60;99.90
1221;DHT22;600;48.044;7.878;2022-09-17T06:31:54;13.60;99.90
1221;DHT22;600;48.044;7.878;2022-09-17T06:34:21;13.50;99.90
1221;DHT22;600;48.044;7.878;2022-09-17T06:36:48;13.50;99.90
1221;DHT22;600;48.044;7.878;2022-09-17T06:39:15;13.50;99.90
1221;DHT22;600;48.044;7.878;2022-09-17T06:41:41;13.60;99.90
1221;DHT22;600;48.044;7.878;2022-09-17T06:44:08;13.60;99.90
1221;DHT22;600;48.044;7.878;2022-09-17T06:46:36;13.60;99.90
1221;DHT22;600;48.044;7.878;2022-09-17T06:49:03;13.60;99.90
1221;DHT22;600;48.044;7.878;2022-09-17T06:51:30;13.60;99.90
1221;DHT22;600;48.044;7.878;2022-09-17T06:53:56;13.60;99.90
1221;DHT22;600;48.044;7.878;2022-09-17T06:56:23;13.70;99.90
1221;DHT22;600;48.044;7.878;2022-09-17T06:58:50;13.70;99.90
1221;DHT22;600;48.044;7.878;2022-09-17T07:01:17;13.70;99.90
1221;DHT22;600;48.044;7.878;2022-09-17T07:03:45;13.70;99.90
1221;DHT22;600;48.044;7.878;2022-09-17T07:06:14;13.80;99.90
1221;DHT22;600;48.044;7.878;2022-09-17T07:08:40;13.80;99.90
1221;DHT22;600;48.044;7.878;2022-09-17T07:11:08;13.80;99.90
1221;DHT22;600;48.044;7.878;2022-09-17T07:13:34;13.80;99.90
1221;DHT22;600;48.044;7.878;2022-09-17T07:16:02;13.70;99.90
1221;DHT22;600;48.044;7.878;2022-09-17T07:18:29;13.70;99.90
1221;DHT22;600;48.044;7.878;2022-09-17T07:20:59;13.60;99.90
1221;DHT22;600;48.044;7.878;2022-09-17T07:23:27;13.70;99.90
1221;DHT22;600;48.044;7.878;2022-09-17T07:25:56;13.70;99.90
1221;DHT22;600;48.044;7.878;2022-09-17T07:28:23;13.80;99.90
1221;DHT22;600;48.044;7.878;2022-09-17T07:30:51;13.80;99.90
1221;DHT22;600;48.044;7.878;2022-09-17T07:33:21;13.80;99.90
1221;DHT22;600;48.044;7.878;2022-09-17T07:35:52;13.80;99.90
1221;DHT22;600;48.044;7.878;2022-09-17T07:38:20;13.80;99.90
1221;DHT22;600;48.044;7.878;2022-09-17T07:40:55;13.80;99.90
1221;DHT22;600;48.044;7.878;2022-09-17T07:43:23;13.70;99.90
1221;DHT22;600;48.044;7.878;2022-09-17T07:45:51;13.70;99.90
1221;DHT22;600;48.044;7.878;2022-09-17T07:48:18;13.70;99.90
1221;DHT22;600;48.044;7.878;2022-09-17T07:50:45;13.70;99.90
1221;DHT22;600;48.044;7.878;2022-09-17T07:53:11;13.90;99.90
1221;DHT22;600;48.044;7.878;2022-09-17T07:55:39;13.90;99.90
1221;DHT22;600;48.044;7.878;2022-09-17T07:58:06;14.10;99.90
1221;DHT22;600;48.044;7.878;2022-09-17T08:00:33;14.10;99.90
1221;DHT22;600;48.044;7.878;2022-09-17T08:03:01;14.20;99.90
1221;DHT22;600;48.044;7.878;2022-09-17T08:05:27;14.20;99.90
1221;DHT22;600;48.044;7.878;2022-09-17T08:07:54;14.30;99.90
1221;DHT22;600;48.044;7.878;2022-09-17T08:10:21;14.30;99.90
1221;DHT22;600;48.044;7.878;2022-09-17T08:12:54;14.30;99.90
1221;DHT22;600;48.044;7.878;2022-09-17T08:15:21;14.40;99.90
1221;DHT22;600;48.044;7.878;2022-09-17T08:17:49;14.40;99.90
1221;DHT22;600;48.044;7.878;2022-09-17T08:20:16;14.40;99.90
1221;DHT22;600;48.044;7.878;2022-09-17T08:22:43;14.40;99.90
1221;DHT22;600;48.044;7.878;2022-09-17T08:25:10;14.40;99.90
1221;DHT22;600;48.044;7.878;2022-09-17T08:27:37;14.50;99.90
1221;DHT22;600;48.044;7.878;2022-09-17T08:30:07;14.50;99.90
1221;DHT22;600;48.044;7.878;2022-09-17T08:32:34;14.50;99.90
1221;DHT22;600;48.044;7.878;2022-09-17T08:35:01;14.50;99.90
1221;DHT22;600;48.044;7.878;2022-09-17T08:37:28;14.60;99.90
1221;DHT22;600;48.044;7.878;2022-09-17T08:39:55;14.60;99.90
1221;DHT22;600;48.044;7.878;2022-09-17T08:42:28;14.60;99.90
1221;DHT22;600;48.044;7.878;2022-09-17T08:44:57;14.60;99.90
1221;DHT22;600;48.044;7.878;2022-09-17T08:47:27;14.60;99.90
1221;DHT22;600;48.044;7.878;2022-09-17T08:49:57;14.60;99.90
1221;DHT22;600;48.044;7.878;2022-09-17T08:55:46;14.70;99.90
1221;DHT22;600;48.044;7.878;2022-09-17T09:01:43;14.70;99.90
1221;DHT22;600;48.044;7.878;2022-09-17T09:04:32;14.60;99.90
1221;DHT22;600;48.044;7.878;2022-09-17T09:07:05;14.60;99.90
1221;DHT22;600;48.044;7.878;2022-09-17T09:09:36;14.60;99.90
1221;DHT22;600;48.044;7.878;2022-09-17T09:12:09;14.60;99.90
1221;DHT22;600;48.044;7.878;2022-09-17T09:14:47;14.60;99.90
1221;DHT22;600;48.044;7.878;2022-09-17T09:17:17;14.60;99.90
1221;DHT22;600;48.044;7.878;2022-09-17T09:19:45;14.60;99.90
1221;DHT22;600;48.044;7.878;2022-09-17T09:22:32;14.70;99.90
1221;DHT22;600;48.044;7.878;2022-09-17T09:25:08;14.70;99.90
1221;DHT22;600;48.044;7.878;2022-09-17T09:27:43;14.70;99.90
1221;DHT22;600;48.044;7.878;2022-09-17T09:30:14;14.60;99.90
1221;DHT22;600;48.044;7.878;2022-09-17T09:32:53;14.70;99.90
1221;DHT22;600;48.044;7.878;2022-09-17T09:35:25;14.70;99.90
1221;DHT22;600;48.044;7.878;2022-09-17T09:37:56;14.70;99.90
1221;DHT22;600;48.044;7.878;2022-09-17T09:40:35;14.70;99.90
1221;DHT22;600;48.044;7.878;2022-09-17T09:43:09;14.70;99.90
1221;DHT22;600;48.044;7.878;2022-09-17T09:45:55;14.70;99.90
1221;DHT22;600;48.044;7.878;2022-09-17T09:48:30;14.80;99.90
1221;DHT22;600;48.044;7.878;2022-09-17T09:51:10;14.70;99.90
1221;DHT22;600;48.044;7.878;2022-09-17T09:53:46;14.70;99.90
1221;DHT22;600;48.044;7.878;2022-09-17T09:56:32;14.80;99.90
1221;DHT22;600;48.044;7.878;2022-09-17T09:59:06;14.80;99.90
1221;DHT22;600;48.044;7.878;2022-09-17T10:01:36;14.80;99.90
1221;DHT22;600;48.044;7.878;2022-09-17T10:04:14;14.90;99.90
1221;DHT22;600;48.044;7.878;2022-09-17T10:06:44;15.00;99.90
1221;DHT22;600;48.044;7.878;2022-09-17T10:09:13;15.10;99.90
1221;DHT22;600;48.044;7.878;2022-09-17T10:11:41;15.10;99.90
1221;DHT22;600;48.044;7.878;2022-09-17T10:14:21;15.20;99.90
1221;DHT22;600;48.044;7.878;2022-09-17T10:16:48;15.20;99.90
1221;DHT22;600;48.044;7.878;2022-09-17T10:19:18;15.30;99.90
1221;DHT22;600;48.044;7.878;2022-09-17T10:21:51;15.30;99.90
1221;DHT22;600;48.044;7.878;2022-09-17T10:24:22;15.30;99.90
1221;DHT22;600;48.044;7.878;2022-09-17T10:26:50;15.40;99.90
1221;DHT22;600;48.044;7.878;2022-09-17T10:29:18;15.40;99.90
1221;DHT22;600;48.044;7.878;2022-09-17T10:31:47;15.40;99.90
1221;DHT22;600;48.044;7.878;2022-09-17T10:34:19;15.50;99.90
1221;DHT22;600;48.044;7.878;2022-09-17T10:36:47;15.50;99.90
1221;DHT22;600;48.044;7.878;2022-09-17T10:39:31;15.70;99.90
1221;DHT22;600;48.044;7.878;2022-09-17T10:41:59;15.70;99.90
1221;DHT22;600;48.044;7.878;2022-09-17T10:44:27;15.90;99.90
1221;DHT22;600;48.044;7.878;2022-09-17T10:47:01;15.90;99.90
1221;DHT22;600;48.044;7.878;2022-09-17T10:49:35;15.90;99.90
1221;DHT22;600;48.044;7.878;2022-09-17T10:52:05;15.90;99.90
1221;DHT22;600;48.044;7.878;2022-09-17T10:55:04;16.00;99.90
1221;DHT22;600;48.044;7.878;2022-09-17T10:57:53;16.10;99.90
1221;DHT22;600;48.044;7.878;2022-09-17T11:00:22;16.10;99.90
1221;DHT22;600;48.044;7.878;2022-09-17T11:06:14;15.90;99.90
1221;DHT22;600;48.044;7.878;2022-09-17T11:08:51;15.90;99.90
1221;DHT22;600;48.044;7.878;2022-09-17T11:11:31;15.90;99.90
1221;DHT22;600;48.044;7.878;2022-09-17T11:14:09;15.90;99.90
1221;DHT22;600;48.044;7.878;2022-09-17T11:16:49;15.90;99.90
1221;DHT22;600;48.044;7.878;2022-09-17T11:19:26;15.90;99.90
1221;DHT22;600;48.044;7.878;2022-09-17T11:22:04;15.90;99.90
1221;DHT22;600;48.044;7.878;2022-09-17T11:24:59;16.00;99.90
1221;DHT22;600;48.044;7.878;2022-09-17T11:27:44;16.00;99.90
1221;DHT22;600;48.044;7.878;2022-09-17T11:30:16;16.10;99.90
1221;DHT22;600;48.044;7.878;2022-09-17T11:33:15;16.20;99.90
1221;DHT22;600;48.044;7.878;2022-09-17T11:35:46;16.20;99.90
1221;DHT22;600;48.044;7.878;2022-09-17T11:38:18;16.20;99.90
1221;DHT22;600;48.044;7.878;2022-09-17T11:40:51;16.20;99.90
1221;DHT22;600;48.044;7.878;2022-09-17T11:43:25;16.30;99.90
1221;DHT22;600;48.044;7.878;2022-09-17T11:45:58;16.20;99.90
1221;DHT22;600;48.044;7.878;2022-09-17T11:48:32;16.10;99.90
1221;DHT22;600;48.044;7.878;2022-09-17T11:51:06;16.10;99.90
1221;DHT22;600;48.044;7.878;2022-09-17T11:53:39;16.10;99.90
1221;DHT22;600;48.044;7.878;2022-09-17T11:56:15;16.10;99.90
1221;DHT22;600;48.044;7.878;2022-09-17T11:58:47;16.20;99.90
1221;DHT22;600;48.044;7.878;2022-09-17T12:01:20;16.30;99.90
1221;DHT22;600;48.044;7.878;2022-09-17T12:03:54;16.40;99.90
1221;DHT22;600;48.044;7.878;2022-09-17T12:06:30;16.40;99.90
1221;DHT22;600;48.044;7.878;2022-09-17T12:09:02;16.40;99.90
1221;DHT22;600;48.044;7.878;2022-09-17T12:11:35;16.40;99.90
1221;DHT22;600;48.044;7.878;2022-09-17T12:14:13;16.50;99.90
1221;DHT22;600;48.044;7.878;2022-09-17T12:16:44;16.40;99.90
1221;DHT22;600;48.044;7.878;2022-09-17T12:19:16;16.30;99.90
1221;DHT22;600;48.044;7.878;2022-09-17T12:21:47;16.20;99.90
1221;DHT22;600;48.044;7.878;2022-09-17T12:24:21;16.20;99.90
1221;DHT22;600;48.044;7.878;2022-09-17T12:27:08;16.20;99.90
1221;DHT22;600;48.044;7.878;2022-09-17T12:30:03;16.20;99.90
1221;DHT22;600;48.044;7.878;2022-09-17T12:36:00;16.70;99.90
1221;DHT22;600;48.044;7.878;2022-09-17T12:41:46;17.30;99.90
1221;DHT22;600;48.044;7.878;2022-09-17T12:44:26;17.50;99.90
1221;DHT22;600;48.044;7.878;2022-09-17T12:47:14;17.70;99.90
1221;DHT22;600;48.044;7.878;2022-09-17T12:50:09;17.90;99.90
1221;DHT22;600;48.044;7.878;2022-09-17T12:52:51;18.00;99.90
1221;DHT22;600;48.044;7.878;2022-09-17T12:55:43;18.10;99.90
1221;DHT22;600;48.044;7.878;2022-09-17T12:58:21;18.30;99.90
1221;DHT22;600;48.044;7.878;2022-09-17T13:00:59;18.20;99.90
1221;DHT22;600;48.044;7.878;2022-09-17T13:03:31;18.20;99.90
1221;DHT22;600;48.044;7.878;2022-09-17T13:06:21;18.20;99.90
1221;DHT22;600;48.044;7.878;2022-09-17T13:09:25;18.20;99.90
1221;DHT22;600;48.044;7.878;2022-09-17T13:12:08;18.10;99.90
1221;DHT22;600;48.044;7.878;2022-09-17T13:14:52;18.20;99.90
1221;DHT22;600;48.044;7.878;2022-09-17T13:17:25;18.20;99.90
1221;DHT22;600;48.044;7.878;2022-09-17T13:19:59;18.20;99.90
1221;DHT22;600;48.044;7.878;2022-09-17T13:22:29;18.20;99.90
1221;DHT22;600;48.044;7.878;2022-09-17T13:25:04;18.30;99.90
1221;DHT22;600;48.044;7.878;2022-09-17T13:27:31;18.40;99.90
1221;DHT22;600;48.044;7.878;2022-09-17T13:30:02;18.50;99.00
1221;DHT22;600;48.044;7.878;2022-09-17T13:32:46;18.50;98.60
1221;DHT22;600;48.044;7.878;2022-09-17T13:35:46;18.50;99.50
1221;DHT22;600;48.044;7.878;2022-09-17T13:38:13;18.50;98.00
1221;DHT22;600;48.044;7.878;2022-09-17T13:40:41;18.40;99.10
1221;DHT22;600;48.044;7.878;2022-09-17T13:43:09;18.40;97.90
1221;DHT22;600;48.044;7.878;2022-09-17T13:46:06;18.30;98.30
1221;DHT22;600;48.044;7.878;2022-09-17T13:48:42;18.20;98.60
1221;DHT22;600;48.044;7.878;2022-09-17T13:51:46;18.00;97.30
1221;DHT22;600;48.044;7.878;2022-09-17T13:54:15;18.00;97.20
1221;DHT22;600;48.044;7.878;2022-09-17T13:56:45;18.10;98.50
1221;DHT22;600;48.044;7.878;2022-09-17T13:59:15;18.10;97.90
1221;DHT22;600;48.044;7.878;2022-09-17T14:04:46;17.80;95.60
1221;DHT22;600;48.044;7.878;2022-09-17T14:07:34;17.60;96.10
1221;DHT22;600;48.044;7.878;2022-09-17T14:15:54;17.50;98.00
1221;DHT22;600;48.044;7.878;2022-09-17T14:18:41;17.40;96.70
1221;DHT22;600;48.044;7.878;2022-09-17T14:21:13;17.30;97.70
1221;DHT22;600;48.044;7.878;2022-09-17T14:23:44;17.30;97.90
1221;DHT22;600;48.044;7.878;2022-09-17T14:29:51;17.20;98.00
1221;DHT22;600;48.044;7.878;2022-09-17T14:32:26;17.30;98.80
1221;DHT22;600;48.044;7.878;2022-09-17T14:34:57;17.40;99.20
1221;DHT22;600;48.044;7.878;2022-09-17T14:37:24;17.40;98.70
1221;DHT22;600;48.044;7.878;2022-09-17T14:39:52;17.50;98.50
1221;DHT22;600;48.044;7.878;2022-09-17T14:42:22;17.60;98.80
1221;DHT22;600;48.044;7.878;2022-09-17T14:44:55;17.70;97.80
1221;DHT22;600;48.044;7.878;2022-09-17T14:47:23;17.90;99.50
1221;DHT22;600;48.044;7.878;2022-09-17T14:49:51;18.10;99.70
1221;DHT22;600;48.044;7.878;2022-09-17T14:52:27;18.10;98.00
1221;DHT22;600;48.044;7.878;2022-09-17T14:55:18;18.10;97.10
1221;DHT22;600;48.044;7.878;2022-09-17T14:57:49;18.10;96.30
1221;DHT22;600;48.044;7.878;2022-09-17T15:00:19;18.00;96.60
1221;DHT22;600;48.044;7.878;2022-09-17T15:02:50;18.00;97.80
1221;DHT22;600;48.044;7.878;2022-09-17T15:05:21;17.90;97.30
1221;DHT22;600;48.044;7.878;2022-09-17T15:07:49;17.90;96.60
1221;DHT22;600;48.044;7.878;2022-09-17T15:10:20;17.80;97.30
1221;DHT22;600;48.044;7.878;2022-09-17T15:12:48;17.80;97.00
1221;DHT22;600;48.044;7.878;2022-09-17T15:15:18;17.80;97.50
1221;DHT22;600;48.044;7.878;2022-09-17T15:17:46;17.80;97.30
1221;DHT22;600;48.044;7.878;2022-09-17T15:20:17;17.70;96.10
1221;DHT22;600;48.044;7.878;2022-09-17T15:22:48;17.60;95.50
1221;DHT22;600;48.044;7.878;2022-09-17T15:25:21;17.50;96.20
1221;DHT22;600;48.044;7.878;2022-09-17T15:27:51;17.50;96.00
1221;DHT22;600;48.044;7.878;2022-09-17T15:30:21;17.60;96.80
1221;DHT22;600;48.044;7.878;2022-09-17T15:32:49;17.50;95.90
1221;DHT22;600;48.044;7.878;2022-09-17T15:35:23;17.50;96.30
1221;DHT22;600;48.044;7.878;2022-09-17T15:37:51;17.50;97.40
1221;DHT22;600;48.044;7.878;2022-09-17T15:40:26;17.50;96.30
1221;DHT22;600;48.044;7.878;2022-09-17T15:43:04;17.50;97.40
1221;DHT22;600;48.044;7.878;2022-09-17T15:45:32;17.50;96.60
1221;DHT22;600;48.044;7.878;2022-09-17T15:48:02;17.50;96.70
1221;DHT22;600;48.044;7.878;2022-09-17T15:50:30;17.50;97.00
1221;DHT22;600;48.044;7.878;2022-09-17T15:53:11;17.40;96.10
1221;DHT22;600;48.044;7.878;2022-09-17T15:55:41;17.40;96.70
1221;DHT22;600;48.044;7.878;2022-09-17T15:58:24;17.30;96.80
1221;DHT22;600;48.044;7.878;2022-09-17T16:04:17;17.30;97.10
1221;DHT22;600;48.044;7.878;2022-09-17T16:06:50;17.30;97.90
1221;DHT22;600;48.044;7.878;2022-09-17T16:09:40;17.30;98.10
1221;DHT22;600;48.044;7.878;2022-09-17T16:12:11;17.30;98.00
1221;DHT22;600;48.044;7.878;2022-09-17T16:14:45;17.20;97.40
1221;DHT22;600;48.044;7.878;2022-09-17T16:17:21;17.20;98.30
1221;DHT22;600;48.044;7.878;2022-09-17T16:19:49;17.10;98.60
1221;DHT22;600;48.044;7.878;2022-09-17T16:22:15;17.00;98.80
1221;DHT22;600;48.044;7.878;2022-09-17T16:24:42;17.10;98.80
1221;DHT22;600;48.044;7.878;2022-09-17T16:27:14;17.00;98.70
1221;DHT22;600;48.044;7.878;2022-09-17T16:29:41;17.00;98.30
1221;DHT22;600;48.044;7.878;2022-09-17T16:32:09;16.90;97.80
1221;DHT22;600;48.044;7.878;2022-09-17T16:34:36;16.80;98.50
1221;DHT22;600;48.044;7.878;2022-09-17T16:37:03;16.80;98.10
1221;DHT22;600;48.044;7.878;2022-09-17T16:39:29;16.80;98.70
1221;DHT22;600;48.044;7.878;2022-09-17T16:41:56;16.90;99.50
1221;DHT22;600;48.044;7.878;2022-09-17T16:44:24;16.90;98.90
1221;DHT22;600;48.044;7.878;2022-09-17T16:46:51;16.80;98.60
1221;DHT22;600;48.044;7.878;2022-09-17T16:49:17;16.80;98.90
1221;DHT22;600;48.044;7.878;2022-09-17T16:51:44;16.80;99.30
1221;DHT22;600;48.044;7.878;2022-09-17T16:54:11;16.80;99.50
1221;DHT22;600;48.044;7.878;2022-09-17T16:56:37;16.70;99.00
1221;DHT22;600;48.044;7.878;2022-09-17T16:59:04;16.60;99.40
1221;DHT22;600;48.044;7.878;2022-09-17T17:01:33;16.60;99.10
1221;DHT22;600;48.044;7.878;2022-09-17T17:04:00;16.50;99.30
1221;DHT22;600;48.044;7.878;2022-09-17T17:06:27;16.40;99.50
1221;DHT22;600;48.044;7.878;2022-09-17T17:08:53;16.40;99.70
1221;DHT22;600;48.044;7.878;2022-09-17T17:11:20;16.40;99.90
1221;DHT22;600;48.044;7.878;2022-09-17T17:13:47;16.30;99.90
1221;DHT22;600;48.044;7.878;2022-09-17T17:16:14;16.30;99.90
1221;DHT22;600;48.044;7.878;2022-09-17T17:18:42;16.30;99.90
1221;DHT22;600;48.044;7.878;2022-09-17T17:21:12;16.20;99.90